sensor_id;sensor_type;location;lat;lon;timestamp;P1;durP1;ratioP1;P2;durP2;ratioP2
40591;SDS011;26301;42.832;23.918;2023-03-23T00:01:15;17.38;;;11.48;;
40591;SDS011;26301;42.832;23.918;2023-03-23T00:03:45;12.20;;;9.35;;
40591;SDS011;26301;42.832;23.918;2023-03-23T00:06:13;15.98;;;9.90;;
40591;SDS011;26301;42.832;23.918;2023-03-23T00:08:43;21.48;;;13.82;;
40591;SDS011;26301;42.832;23.918;2023-03-23T00:11:22;21.17;;;14.13;;
40591;SDS011;26301;42.832;23.918;2023-03-23T00:13:51;22.92;;;16.27;;
40591;SDS011;26301;42.832;23.918;2023-03-23T00:16:22;24.50;;;16.95;;
40591;SDS011;26301;42.832;23.918;2023-03-23T00:18:57;20.27;;;14.27;;
40591;SDS011;26301;42.832;23.918;2023-03-23T00:21:28;20.67;;;15.00;;
40591;SDS011;26301;42.832;23.918;2023-03-23T00:24:03;24.20;;;16.42;;
40591;SDS011;26301;42.832;23.918;2023-03-23T00:26:32;19.20;;;14.20;;
40591;SDS011;26301;42.832;23.918;2023-03-23T00:29:04;23.48;;;14.50;;
40591;SDS011;26301;42.832;23.918;2023-03-23T00:31:30;18.25;;;14.68;;
40591;SDS011;26301;42.832;23.918;2023-03-23T00:33:58;20.23;;;15.57;;
40591;SDS011;26301;42.832;23.918;2023-03-23T00:36:26;20.08;;;14.27;;
40591;SDS011;26301;42.832;23.918;2023-03-23T00:38:53;18.70;;;13.73;;
40591;SDS011;26301;42.832;23.918;2023-03-23T00:41:23;16.90;;;12.70;;
40591;SDS011;26301;42.832;23.918;2023-03-23T00:43:51;16.65;;;12.52;;
40591;SDS011;26301;42.832;23.918;2023-03-23T00:46:18;17.88;;;13.05;;
40591;SDS011;26301;42.832;23.918;2023-03-23T00:48:46;16.15;;;11.20;;
40591;SDS011;26301;42.832;23.918;2023-03-23T00:51:12;11.95;;;9.95;;
40591;SDS011;26301;42.832;23.918;2023-03-23T00:53:40;16.75;;;12.15;;
40591;SDS011;26301;42.832;23.918;2023-03-23T00:56:06;20.52;;;13.85;;
40591;SDS011;26301;42.832;23.918;2023-03-23T00:58:33;17.08;;;12.80;;
40591;SDS011;26301;42.832;23.918;2023-03-23T01:00:59;20.02;;;13.32;;
40591;SDS011;26301;42.832;23.918;2023-03-23T01:03:25;17.10;;;12.15;;
40591;SDS011;26301;42.832;23.918;2023-03-23T01:05:53;18.88;;;12.18;;
40591;SDS011;26301;42.832;23.918;2023-03-23T01:08:20;15.23;;;12.60;;
40591;SDS011;26301;42.832;23.918;2023-03-23T01:10:46;17.52;;;11.98;;
40591;SDS011;26301;42.832;23.918;2023-03-23T01:13:13;16.40;;;12.55;;
40591;SDS011;26301;42.832;23.918;2023-03-23T01:15:39;19.52;;;12.30;;
40591;SDS011;26301;42.832;23.918;2023-03-23T01:18:07;16.92;;;12.00;;
40591;SDS011;26301;42.832;23.918;2023-03-23T01:20:34;16.67;;;12.23;;
40591;SDS011;26301;42.832;23.918;2023-03-23T01:23:01;16.73;;;13.05;;
40591;SDS011;26301;42.832;23.918;2023-03-23T01:25:28;19.35;;;13.15;;
40591;SDS011;26301;42.832;23.918;2023-03-23T01:27:58;18.88;;;13.93;;
40591;SDS011;26301;42.832;23.918;2023-03-23T01:30:24;16.00;;;11.52;;
40591;SDS011;26301;42.832;23.918;2023-03-23T01:32:51;13.88;;;10.82;;
40591;SDS011;26301;42.832;23.918;2023-03-23T01:35:18;18.33;;;11.80;;
40591;SDS011;26301;42.832;23.918;2023-03-23T01:37:44;17.38;;;10.50;;
40591;SDS011;26301;42.832;23.918;2023-03-23T01:40:10;18.77;;;12.68;;
40591;SDS011;26301;42.832;23.918;2023-03-23T01:42:37;19.10;;;14.07;;
40591;SDS011;26301;42.832;23.918;2023-03-23T01:47:54;19.55;;;14.80;;
40591;SDS011;26301;42.832;23.918;2023-03-23T01:50:24;22.67;;;15.27;;
40591;SDS011;26301;42.832;23.918;2023-03-23T01:52:53;21.70;;;14.50;;
40591;SDS011;26301;42.832;23.918;2023-03-23T01:55:22;24.52;;;15.68;;
40591;SDS011;26301;42.832;23.918;2023-03-23T01:57:51;23.80;;;15.77;;
40591;SDS011;26301;42.832;23.918;2023-03-23T02:00:18;24.17;;;15.98;;
40591;SDS011;26301;42.832;23.918;2023-03-23T02:02:47;22.65;;;15.70;;
40591;SDS011;26301;42.832;23.918;2023-03-23T02:05:50;21.15;;;15.43;;
40591;SDS011;26301;42.832;23.918;2023-03-23T02:08:09;26.45;;;16.92;;
40591;SDS011;26301;42.832;23.918;2023-03-23T02:10:38;30.50;;;18.02;;
40591;SDS011;26301;42.832;23.918;2023-03-23T02:13:05;26.38;;;18.35;;
40591;SDS011;26301;42.832;23.918;2023-03-23T02:15:39;25.15;;;15.10;;
40591;SDS011;26301;42.832;23.918;2023-03-23T02:21:40;23.15;;;16.00;;
40591;SDS011;26301;42.832;23.918;2023-03-23T02:27:08;21.92;;;14.93;;
40591;SDS011;26301;42.832;23.918;2023-03-23T02:29:44;25.77;;;15.82;;
40591;SDS011;26301;42.832;23.918;2023-03-23T02:35:18;21.20;;;14.00;;
40591;SDS011;26301;42.832;23.918;2023-03-23T02:37:50;23.25;;;14.80;;
40591;SDS011;26301;42.832;23.918;2023-03-23T02:40:24;21.63;;;14.98;;
40591;SDS011;26301;42.832;23.918;2023-03-23T02:42:57;20.88;;;14.65;;
40591;SDS011;26301;42.832;23.918;2023-03-23T02:45:25;20.33;;;14.48;;
40591;SDS011;26301;42.832;23.918;2023-03-23T02:47:54;21.83;;;15.77;;
40591;SDS011;26301;42.832;23.918;2023-03-23T02:50:22;18.25;;;13.63;;
40591;SDS011;26301;42.832;23.918;2023-03-23T02:52:52;22.40;;;13.95;;
40591;SDS011;26301;42.832;23.918;2023-03-23T02:55:19;20.90;;;13.50;;
40591;SDS011;26301;42.832;23.918;2023-03-23T02:57:51;22.20;;;12.82;;
40591;SDS011;26301;42.832;23.918;2023-03-23T03:00:18;17.00;;;12.27;;
40591;SDS011;26301;42.832;23.918;2023-03-23T03:02:54;14.32;;;10.85;;
40591;SDS011;26301;42.832;23.918;2023-03-23T03:11:02;22.70;;;16.60;;
40591;SDS011;26301;42.832;23.918;2023-03-23T03:19:01;16.25;;;12.30;;
40591;SDS011;26301;42.832;23.918;2023-03-23T03:21:54;15.93;;;12.32;;
40591;SDS011;26301;42.832;23.918;2023-03-23T03:24:24;17.73;;;12.52;;
40591;SDS011;26301;42.832;23.918;2023-03-23T03:26:53;17.83;;;12.68;;
40591;SDS011;26301;42.832;23.918;2023-03-23T03:29:27;21.10;;;12.48;;
40591;SDS011;26301;42.832;23.918;2023-03-23T03:31:57;18.88;;;13.63;;
40591;SDS011;26301;42.832;23.918;2023-03-23T03:34:25;17.13;;;12.98;;
40591;SDS011;26301;42.832;23.918;2023-03-23T03:36:52;19.77;;;13.45;;
40591;SDS011;26301;42.832;23.918;2023-03-23T03:39:23;18.95;;;13.93;;
40591;SDS011;26301;42.832;23.918;2023-03-23T03:41:49;18.38;;;13.32;;
40591;SDS011;26301;42.832;23.918;2023-03-23T03:44:15;19.00;;;12.55;;
40591;SDS011;26301;42.832;23.918;2023-03-23T03:46:41;20.52;;;12.68;;
40591;SDS011;26301;42.832;23.918;2023-03-23T03:49:09;16.27;;;11.48;;
40591;SDS011;26301;42.832;23.918;2023-03-23T03:51:40;14.23;;;10.93;;
40591;SDS011;26301;42.832;23.918;2023-03-23T03:54:07;18.98;;;13.50;;
40591;SDS011;26301;42.832;23.918;2023-03-23T03:56:33;21.77;;;11.52;;
40591;SDS011;26301;42.832;23.918;2023-03-23T03:59:05;17.13;;;11.32;;
40591;SDS011;26301;42.832;23.918;2023-03-23T04:01:33;16.20;;;11.25;;
40591;SDS011;26301;42.832;23.918;2023-03-23T04:03:59;16.67;;;11.02;;
40591;SDS011;26301;42.832;23.918;2023-03-23T04:06:25;15.43;;;10.82;;
40591;SDS011;26301;42.832;23.918;2023-03-23T04:08:53;16.60;;;11.68;;
40591;SDS011;26301;42.832;23.918;2023-03-23T04:11:20;18.35;;;11.82;;
40591;SDS011;26301;42.832;23.918;2023-03-23T04:13:46;14.05;;;10.95;;
40591;SDS011;26301;42.832;23.918;2023-03-23T04:16:11;18.25;;;12.68;;
40591;SDS011;26301;42.832;23.918;2023-03-23T04:18:37;16.95;;;12.40;;
40591;SDS011;26301;42.832;23.918;2023-03-23T04:21:03;16.95;;;12.50;;
40591;SDS011;26301;42.832;23.918;2023-03-23T04:23:33;16.58;;;12.00;;
40591;SDS011;26301;42.832;23.918;2023-03-23T04:25:59;16.77;;;12.10;;
40591;SDS011;26301;42.832;23.918;2023-03-23T04:28:25;16.05;;;11.93;;
40591;SDS011;26301;42.832;23.918;2023-03-23T04:30:53;17.10;;;11.65;;
40591;SDS011;26301;42.832;23.918;2023-03-23T04:33:22;16.92;;;12.52;;
40591;SDS011;26301;42.832;23.918;2023-03-23T04:35:50;18.90;;;11.85;;
40591;SDS011;26301;42.832;23.918;2023-03-23T04:38:19;20.60;;;11.77;;
40591;SDS011;26301;42.832;23.918;2023-03-23T04:40:46;15.90;;;12.15;;
40591;SDS011;26301;42.832;23.918;2023-03-23T04:43:12;18.92;;;12.98;;
40591;SDS011;26301;42.832;23.918;2023-03-23T04:45:40;16.98;;;12.65;;
40591;SDS011;26301;42.832;23.918;2023-03-23T04:48:11;18.70;;;11.77;;
40591;SDS011;26301;42.832;23.918;2023-03-23T04:50:37;17.73;;;13.48;;
40591;SDS011;26301;42.832;23.918;2023-03-23T04:53:03;19.13;;;13.15;;
40591;SDS011;26301;42.832;23.918;2023-03-23T04:55:30;18.30;;;12.88;;
40591;SDS011;26301;42.832;23.918;2023-03-23T04:57:57;20.60;;;13.90;;
40591;SDS011;26301;42.832;23.918;2023-03-23T05:00:26;23.95;;;17.95;;
40591;SDS011;26301;42.832;23.918;2023-03-23T05:02:52;23.63;;;15.95;;
40591;SDS011;26301;42.832;23.918;2023-03-23T05:05:20;21.05;;;15.43;;
40591;SDS011;26301;42.832;23.918;2023-03-23T05:07:47;21.05;;;16.63;;
40591;SDS011;26301;42.832;23.918;2023-03-23T05:10:14;24.25;;;16.13;;
40591;SDS011;26301;42.832;23.918;2023-03-23T05:12:41;19.98;;;13.60;;
40591;SDS011;26301;42.832;23.918;2023-03-23T05:15:07;17.20;;;12.68;;
40591;SDS011;26301;42.832;23.918;2023-03-23T05:17:34;21.13;;;14.73;;
40591;SDS011;26301;42.832;23.918;2023-03-23T05:20:01;17.98;;;13.90;;
40591;SDS011;26301;42.832;23.918;2023-03-23T05:22:29;17.02;;;13.18;;
40591;SDS011;26301;42.832;23.918;2023-03-23T05:24:57;21.17;;;13.68;;
40591;SDS011;26301;42.832;23.918;2023-03-23T05:27:28;19.80;;;15.23;;
40591;SDS011;26301;42.832;23.918;2023-03-23T05:29:55;19.77;;;14.60;;
40591;SDS011;26301;42.832;23.918;2023-03-23T05:32:23;19.75;;;15.38;;
40591;SDS011;26301;42.832;23.918;2023-03-23T05:34:59;19.67;;;14.90;;
40591;SDS011;26301;42.832;23.918;2023-03-23T05:37:25;18.92;;;14.93;;
40591;SDS011;26301;42.832;23.918;2023-03-23T05:39:53;21.52;;;15.13;;
40591;SDS011;26301;42.832;23.918;2023-03-23T05:42:20;22.80;;;15.38;;
40591;SDS011;26301;42.832;23.918;2023-03-23T05:44:49;22.17;;;14.15;;
40591;SDS011;26301;42.832;23.918;2023-03-23T05:47:15;20.20;;;14.15;;
40591;SDS011;26301;42.832;23.918;2023-03-23T05:49:41;23.05;;;15.30;;
40591;SDS011;26301;42.832;23.918;2023-03-23T05:52:07;22.15;;;15.85;;
40591;SDS011;26301;42.832;23.918;2023-03-23T05:54:33;21.00;;;15.07;;
40591;SDS011;26301;42.832;23.918;2023-03-23T05:56:59;22.98;;;15.63;;
40591;SDS011;26301;42.832;23.918;2023-03-23T05:59:25;23.38;;;17.60;;
40591;SDS011;26301;42.832;23.918;2023-03-23T06:01:51;20.95;;;16.50;;
40591;SDS011;26301;42.832;23.918;2023-03-23T06:04:18;18.83;;;14.73;;
40591;SDS011;26301;42.832;23.918;2023-03-23T06:06:44;19.58;;;14.65;;
40591;SDS011;26301;42.832;23.918;2023-03-23T06:09:10;23.30;;;15.13;;
40591;SDS011;26301;42.832;23.918;2023-03-23T06:11:36;20.65;;;13.63;;
40591;SDS011;26301;42.832;23.918;2023-03-23T06:14:02;19.55;;;14.15;;
40591;SDS011;26301;42.832;23.918;2023-03-23T06:16:28;19.15;;;13.55;;
40591;SDS011;26301;42.832;23.918;2023-03-23T06:18:54;18.38;;;13.70;;
40591;SDS011;26301;42.832;23.918;2023-03-23T06:21:22;21.45;;;15.82;;
40591;SDS011;26301;42.832;23.918;2023-03-23T06:23:48;19.10;;;14.77;;
40591;SDS011;26301;42.832;23.918;2023-03-23T06:26:14;20.77;;;16.02;;
40591;SDS011;26301;42.832;23.918;2023-03-23T06:28:42;17.63;;;14.48;;
40591;SDS011;26301;42.832;23.918;2023-03-23T06:31:08;17.40;;;14.93;;
40591;SDS011;26301;42.832;23.918;2023-03-23T06:33:35;21.00;;;13.98;;
40591;SDS011;26301;42.832;23.918;2023-03-23T06:36:02;16.00;;;13.07;;
40591;SDS011;26301;42.832;23.918;2023-03-23T06:38:29;14.93;;;10.82;;
40591;SDS011;26301;42.832;23.918;2023-03-23T06:40:55;15.27;;;11.75;;
40591;SDS011;26301;42.832;23.918;2023-03-23T06:43:22;14.95;;;11.30;;
40591;SDS011;26301;42.832;23.918;2023-03-23T06:45:48;16.35;;;12.90;;
40591;SDS011;26301;42.832;23.918;2023-03-23T06:48:13;15.35;;;11.60;;
40591;SDS011;26301;42.832;23.918;2023-03-23T06:50:42;12.95;;;10.75;;
40591;SDS011;26301;42.832;23.918;2023-03-23T06:53:08;16.73;;;12.52;;
40591;SDS011;26301;42.832;23.918;2023-03-23T06:55:35;15.73;;;11.27;;
40591;SDS011;26301;42.832;23.918;2023-03-23T06:58:01;14.25;;;11.27;;
40591;SDS011;26301;42.832;23.918;2023-03-23T07:00:27;15.82;;;11.07;;
40591;SDS011;26301;42.832;23.918;2023-03-23T07:02:54;16.05;;;11.68;;
40591;SDS011;26301;42.832;23.918;2023-03-23T07:05:20;16.98;;;12.48;;
40591;SDS011;26301;42.832;23.918;2023-03-23T07:07:46;13.02;;;11.25;;
40591;SDS011;26301;42.832;23.918;2023-03-23T07:10:11;15.60;;;13.13;;
40591;SDS011;26301;42.832;23.918;2023-03-23T07:12:37;15.25;;;11.93;;
40591;SDS011;26301;42.832;23.918;2023-03-23T07:15:04;16.85;;;12.88;;
40591;SDS011;26301;42.832;23.918;2023-03-23T07:17:30;23.13;;;16.02;;
40591;SDS011;26301;42.832;23.918;2023-03-23T07:19:57;22.73;;;18.10;;
40591;SDS011;26301;42.832;23.918;2023-03-23T07:22:22;23.80;;;17.60;;
40591;SDS011;26301;42.832;23.918;2023-03-23T07:24:48;21.08;;;15.73;;
40591;SDS011;26301;42.832;23.918;2023-03-23T07:27:14;26.08;;;18.08;;
40591;SDS011;26301;42.832;23.918;2023-03-23T07:29:40;21.15;;;15.65;;
40591;SDS011;26301;42.832;23.918;2023-03-23T07:32:08;21.50;;;16.63;;
40591;SDS011;26301;42.832;23.918;2023-03-23T07:34:36;23.17;;;17.80;;
40591;SDS011;26301;42.832;23.918;2023-03-23T07:37:02;21.38;;;17.38;;
40591;SDS011;26301;42.832;23.918;2023-03-23T07:39:28;23.15;;;16.70;;
40591;SDS011;26301;42.832;23.918;2023-03-23T07:41:54;22.80;;;16.55;;
40591;SDS011;26301;42.832;23.918;2023-03-23T07:44:19;20.45;;;15.82;;
40591;SDS011;26301;42.832;23.918;2023-03-23T07:46:45;21.90;;;15.68;;
40591;SDS011;26301;42.832;23.918;2023-03-23T07:49:11;21.85;;;16.92;;
40591;SDS011;26301;42.832;23.918;2023-03-23T07:51:37;23.35;;;17.75;;
40591;SDS011;26301;42.832;23.918;2023-03-23T07:54:06;26.60;;;18.98;;
40591;SDS011;26301;42.832;23.918;2023-03-23T07:56:32;23.63;;;17.92;;
40591;SDS011;26301;42.832;23.918;2023-03-23T07:59:00;19.95;;;15.43;;
40591;SDS011;26301;42.832;23.918;2023-03-23T08:01:26;21.73;;;15.98;;
40591;SDS011;26301;42.832;23.918;2023-03-23T08:03:52;20.05;;;13.98;;
40591;SDS011;26301;42.832;23.918;2023-03-23T08:06:19;19.33;;;14.18;;
40591;SDS011;26301;42.832;23.918;2023-03-23T08:08:46;18.23;;;13.02;;
40591;SDS011;26301;42.832;23.918;2023-03-23T08:11:12;19.02;;;14.27;;
40591;SDS011;26301;42.832;23.918;2023-03-23T08:13:40;17.55;;;14.45;;
40591;SDS011;26301;42.832;23.918;2023-03-23T08:16:06;15.45;;;12.63;;
40591;SDS011;26301;42.832;23.918;2023-03-23T08:18:34;15.93;;;12.90;;
40591;SDS011;26301;42.832;23.918;2023-03-23T08:21:01;13.48;;;10.82;;
40591;SDS011;26301;42.832;23.918;2023-03-23T08:23:29;15.82;;;12.40;;
40591;SDS011;26301;42.832;23.918;2023-03-23T08:25:55;13.68;;;10.75;;
40591;SDS011;26301;42.832;23.918;2023-03-23T08:28:24;14.68;;;11.05;;
40591;SDS011;26301;42.832;23.918;2023-03-23T08:30:49;13.45;;;10.20;;
40591;SDS011;26301;42.832;23.918;2023-03-23T08:33:15;11.88;;;9.77;;
40591;SDS011;26301;42.832;23.918;2023-03-23T08:35:41;15.73;;;11.40;;
40591;SDS011;26301;42.832;23.918;2023-03-23T08:38:09;13.15;;;9.65;;
40591;SDS011;26301;42.832;23.918;2023-03-23T08:40:38;14.65;;;10.43;;
40591;SDS011;26301;42.832;23.918;2023-03-23T08:43:04;15.98;;;11.95;;
40591;SDS011;26301;42.832;23.918;2023-03-23T08:45:31;10.95;;;9.52;;
40591;SDS011;26301;42.832;23.918;2023-03-23T08:47:57;15.98;;;11.32;;
40591;SDS011;26301;42.832;23.918;2023-03-23T08:50:25;13.07;;;10.32;;
40591;SDS011;26301;42.832;23.918;2023-03-23T08:52:52;13.27;;;10.63;;
40591;SDS011;26301;42.832;23.918;2023-03-23T08:55:20;14.50;;;10.30;;
40591;SDS011;26301;42.832;23.918;2023-03-23T08:57:47;11.95;;;9.55;;
40591;SDS011;26301;42.832;23.918;2023-03-23T09:00:14;13.73;;;9.68;;
40591;SDS011;26301;42.832;23.918;2023-03-23T09:02:49;12.38;;;9.10;;
40591;SDS011;26301;42.832;23.918;2023-03-23T09:05:18;10.27;;;8.20;;
40591;SDS011;26301;42.832;23.918;2023-03-23T09:07:47;14.13;;;9.52;;
40591;SDS011;26301;42.832;23.918;2023-03-23T09:10:14;13.18;;;10.05;;
40591;SDS011;26301;42.832;23.918;2023-03-23T09:12:42;12.07;;;9.57;;
40591;SDS011;26301;42.832;23.918;2023-03-23T09:15:10;12.25;;;8.98;;
40591;SDS011;26301;42.832;23.918;2023-03-23T09:17:44;11.25;;;9.25;;
40591;SDS011;26301;42.832;23.918;2023-03-23T09:20:12;12.27;;;8.65;;
40591;SDS011;26301;42.832;23.918;2023-03-23T09:22:42;11.38;;;8.65;;
40591;SDS011;26301;42.832;23.918;2023-03-23T09:25:10;11.15;;;8.55;;
40591;SDS011;26301;42.832;23.918;2023-03-23T09:27:38;10.18;;;8.13;;
40591;SDS011;26301;42.832;23.918;2023-03-23T09:30:07;10.75;;;7.93;;
40591;SDS011;26301;42.832;23.918;2023-03-23T09:32:36;9.95;;;7.53;;
40591;SDS011;26301;42.832;23.918;2023-03-23T09:35:03;10.85;;;8.18;;
40591;SDS011;26301;42.832;23.918;2023-03-23T09:37:32;9.45;;;7.47;;
40591;SDS011;26301;42.832;23.918;2023-03-23T09:40:00;12.48;;;7.88;;
40591;SDS011;26301;42.832;23.918;2023-03-23T09:42:31;9.07;;;7.47;;
40591;SDS011;26301;42.832;23.918;2023-03-23T09:45:19;10.48;;;7.53;;
40591;SDS011;26301;42.832;23.918;2023-03-23T09:50:32;10.55;;;6.63;;
40591;SDS011;26301;42.832;23.918;2023-03-23T09:55:41;9.85;;;7.30;;
40591;SDS011;26301;42.832;23.918;2023-03-23T10:00:55;10.55;;;7.47;;
40591;SDS011;26301;42.832;23.918;2023-03-23T10:03:26;8.68;;;7.25;;
40591;SDS011;26301;42.832;23.918;2023-03-23T10:05:57;13.90;;;9.03;;
40591;SDS011;26301;42.832;23.918;2023-03-23T10:08:26;11.40;;;8.35;;
40591;SDS011;26301;42.832;23.918;2023-03-23T10:19:46;10.52;;;7.47;;
40591;SDS011;26301;42.832;23.918;2023-03-23T10:22:23;10.57;;;7.32;;
40591;SDS011;26301;42.832;23.918;2023-03-23T10:27:44;9.00;;;6.88;;
40591;SDS011;26301;42.832;23.918;2023-03-23T10:30:38;10.80;;;7.18;;
40591;SDS011;26301;42.832;23.918;2023-03-23T10:35:55;8.52;;;7.20;;
40591;SDS011;26301;42.832;23.918;2023-03-23T10:39:04;10.15;;;7.25;;
40591;SDS011;26301;42.832;23.918;2023-03-23T10:41:44;13.32;;;8.25;;
40591;SDS011;26301;42.832;23.918;2023-03-23T10:44:16;9.48;;;8.00;;
40591;SDS011;26301;42.832;23.918;2023-03-23T10:49:24;10.25;;;7.88;;
40591;SDS011;26301;42.832;23.918;2023-03-23T10:54:51;9.23;;;7.15;;
40591;SDS011;26301;42.832;23.918;2023-03-23T10:57:29;10.05;;;7.93;;
40591;SDS011;26301;42.832;23.918;2023-03-23T10:59:59;8.65;;;7.35;;
40591;SDS011;26301;42.832;23.918;2023-03-23T11:02:31;9.25;;;7.13;;
40591;SDS011;26301;42.832;23.918;2023-03-23T11:05:12;10.13;;;7.88;;
40591;SDS011;26301;42.832;23.918;2023-03-23T11:07:41;19.00;;;16.15;;
40591;SDS011;26301;42.832;23.918;2023-03-23T11:10:16;9.70;;;7.43;;
40591;SDS011;26301;42.832;23.918;2023-03-23T11:12:48;9.32;;;7.00;;
40591;SDS011;26301;42.832;23.918;2023-03-23T11:15:23;9.45;;;7.32;;
40591;SDS011;26301;42.832;23.918;2023-03-23T11:17:58;11.18;;;8.25;;
40591;SDS011;26301;42.832;23.918;2023-03-23T11:20:27;9.48;;;7.65;;
40591;SDS011;26301;42.832;23.918;2023-03-23T11:22:54;8.95;;;7.25;;
40591;SDS011;26301;42.832;23.918;2023-03-23T11:25:20;9.30;;;6.93;;
40591;SDS011;26301;42.832;23.918;2023-03-23T11:27:46;10.75;;;8.27;;
40591;SDS011;26301;42.832;23.918;2023-03-23T11:30:19;9.00;;;7.78;;
40591;SDS011;26301;42.832;23.918;2023-03-23T11:32:49;14.80;;;9.25;;
40591;SDS011;26301;42.832;23.918;2023-03-23T11:35:26;13.77;;;9.50;;
40591;SDS011;26301;42.832;23.918;2023-03-23T11:37:54;10.05;;;7.63;;
40591;SDS011;26301;42.832;23.918;2023-03-23T11:40:22;11.20;;;8.35;;
40591;SDS011;26301;42.832;23.918;2023-03-23T11:45:24;11.57;;;8.23;;
40591;SDS011;26301;42.832;23.918;2023-03-23T11:50:50;9.73;;;7.82;;
40591;SDS011;26301;42.832;23.918;2023-03-23T11:53:24;10.13;;;7.35;;
40591;SDS011;26301;42.832;23.918;2023-03-23T11:56:00;10.82;;;7.32;;
40591;SDS011;26301;42.832;23.918;2023-03-23T11:58:45;9.32;;;7.00;;
40591;SDS011;26301;42.832;23.918;2023-03-23T12:01:18;10.02;;;7.40;;
40591;SDS011;26301;42.832;23.918;2023-03-23T12:03:56;10.98;;;8.23;;
40591;SDS011;26301;42.832;23.918;2023-03-23T12:09:22;10.88;;;7.72;;
40591;SDS011;26301;42.832;23.918;2023-03-23T12:14:47;11.40;;;8.35;;
40591;SDS011;26301;42.832;23.918;2023-03-23T12:25:10;10.15;;;7.85;;
40591;SDS011;26301;42.832;23.918;2023-03-23T12:27:54;8.48;;;6.80;;
40591;SDS011;26301;42.832;23.918;2023-03-23T12:44:33;10.35;;;7.55;;
40591;SDS011;26301;42.832;23.918;2023-03-23T12:47:11;11.43;;;8.23;;
40591;SDS011;26301;42.832;23.918;2023-03-23T12:55:30;10.50;;;7.35;;
40591;SDS011;26301;42.832;23.918;2023-03-23T12:58:03;11.02;;;8.13;;
40591;SDS011;26301;42.832;23.918;2023-03-23T13:11:32;7.20;;;5.80;;
40591;SDS011;26301;42.832;23.918;2023-03-23T13:14:09;8.00;;;5.90;;
40591;SDS011;26301;42.832;23.918;2023-03-23T13:17:19;8.40;;;6.63;;
40591;SDS011;26301;42.832;23.918;2023-03-23T13:22:50;8.70;;;7.55;;
40591;SDS011;26301;42.832;23.918;2023-03-23T13:28:21;7.90;;;6.43;;
40591;SDS011;26301;42.832;23.918;2023-03-23T13:30:59;8.70;;;6.95;;
40591;SDS011;26301;42.832;23.918;2023-03-23T13:33:50;8.88;;;6.45;;
40591;SDS011;26301;42.832;23.918;2023-03-23T13:36:30;8.18;;;6.22;;
40591;SDS011;26301;42.832;23.918;2023-03-23T13:39:05;8.52;;;6.13;;
40591;SDS011;26301;42.832;23.918;2023-03-23T13:41:58;8.07;;;6.70;;
40591;SDS011;26301;42.832;23.918;2023-03-23T13:54:49;7.05;;;5.40;;
40591;SDS011;26301;42.832;23.918;2023-03-23T14:00:10;7.75;;;5.88;;
40591;SDS011;26301;42.832;23.918;2023-03-23T14:05:45;6.95;;;5.57;;
40591;SDS011;26301;42.832;23.918;2023-03-23T14:08:22;7.43;;;5.93;;
40591;SDS011;26301;42.832;23.918;2023-03-23T14:10:56;7.55;;;5.43;;
40591;SDS011;26301;42.832;23.918;2023-03-23T14:13:32;9.13;;;6.10;;
40591;SDS011;26301;42.832;23.918;2023-03-23T14:18:34;7.18;;;5.47;;
40591;SDS011;26301;42.832;23.918;2023-03-23T14:21:03;6.88;;;5.43;;
40591;SDS011;26301;42.832;23.918;2023-03-23T14:23:31;8.23;;;5.95;;
40591;SDS011;26301;42.832;23.918;2023-03-23T14:25:59;6.95;;;5.82;;
40591;SDS011;26301;42.832;23.918;2023-03-23T14:28:38;9.38;;;6.47;;
40591;SDS011;26301;42.832;23.918;2023-03-23T14:31:14;6.32;;;5.57;;
40591;SDS011;26301;42.832;23.918;2023-03-23T14:33:47;6.77;;;5.30;;
40591;SDS011;26301;42.832;23.918;2023-03-23T14:36:27;6.68;;;5.28;;
40591;SDS011;26301;42.832;23.918;2023-03-23T14:39:17;7.43;;;5.95;;
40591;SDS011;26301;42.832;23.918;2023-03-23T14:42:02;6.88;;;5.43;;
40591;SDS011;26301;42.832;23.918;2023-03-23T14:44:32;7.53;;;5.82;;
40591;SDS011;26301;42.832;23.918;2023-03-23T14:47:04;9.35;;;6.15;;
40591;SDS011;26301;42.832;23.918;2023-03-23T14:49:36;6.45;;;5.00;;
40591;SDS011;26301;42.832;23.918;2023-03-23T14:52:10;8.27;;;6.25;;
40591;SDS011;26301;42.832;23.918;2023-03-23T14:54:37;7.28;;;5.00;;
40591;SDS011;26301;42.832;23.918;2023-03-23T14:57:13;9.07;;;6.03;;
40591;SDS011;26301;42.832;23.918;2023-03-23T14:59:57;7.20;;;5.68;;
40591;SDS011;26301;42.832;23.918;2023-03-23T15:02:25;7.72;;;5.70;;
40591;SDS011;26301;42.832;23.918;2023-03-23T15:05:03;8.63;;;5.70;;
40591;SDS011;26301;42.832;23.918;2023-03-23T15:07:35;6.75;;;5.32;;
40591;SDS011;26301;42.832;23.918;2023-03-23T15:10:06;5.75;;;4.97;;
40591;SDS011;26301;42.832;23.918;2023-03-23T15:12:39;8.30;;;6.60;;
40591;SDS011;26301;42.832;23.918;2023-03-23T15:15:24;10.25;;;5.53;;
40591;SDS011;26301;42.832;23.918;2023-03-23T15:17:52;6.13;;;4.78;;
40591;SDS011;26301;42.832;23.918;2023-03-23T15:20:32;9.02;;;5.75;;
40591;SDS011;26301;42.832;23.918;2023-03-23T15:23:14;7.75;;;5.40;;
40591;SDS011;26301;42.832;23.918;2023-03-23T15:25:47;6.97;;;5.65;;
40591;SDS011;26301;42.832;23.918;2023-03-23T15:28:16;7.05;;;5.43;;
40591;SDS011;26301;42.832;23.918;2023-03-23T15:31:04;8.13;;;4.95;;
40591;SDS011;26301;42.832;23.918;2023-03-23T15:33:37;7.18;;;5.07;;
40591;SDS011;26301;42.832;23.918;2023-03-23T15:36:08;6.55;;;4.68;;
40591;SDS011;26301;42.832;23.918;2023-03-23T15:38:44;8.38;;;5.00;;
40591;SDS011;26301;42.832;23.918;2023-03-23T15:44:12;8.50;;;5.65;;
40591;SDS011;26301;42.832;23.918;2023-03-23T15:46:50;8.48;;;5.25;;
40591;SDS011;26301;42.832;23.918;2023-03-23T15:49:18;10.25;;;5.15;;
40591;SDS011;26301;42.832;23.918;2023-03-23T15:51:44;6.05;;;5.10;;
40591;SDS011;26301;42.832;23.918;2023-03-23T15:54:12;6.55;;;4.35;;
40591;SDS011;26301;42.832;23.918;2023-03-23T15:56:40;6.40;;;4.75;;
40591;SDS011;26301;42.832;23.918;2023-03-23T15:59:07;6.32;;;4.75;;
40591;SDS011;26301;42.832;23.918;2023-03-23T16:01:33;6.82;;;4.90;;
40591;SDS011;26301;42.832;23.918;2023-03-23T16:04:05;7.32;;;4.30;;
40591;SDS011;26301;42.832;23.918;2023-03-23T16:09:00;9.35;;;5.10;;
40591;SDS011;26301;42.832;23.918;2023-03-23T16:11:28;8.48;;;5.18;;
40591;SDS011;26301;42.832;23.918;2023-03-23T16:13:55;9.20;;;4.40;;
40591;SDS011;26301;42.832;23.918;2023-03-23T16:16:23;8.23;;;4.95;;
40591;SDS011;26301;42.832;23.918;2023-03-23T16:18:52;7.18;;;4.68;;
40591;SDS011;26301;42.832;23.918;2023-03-23T16:21:18;8.48;;;5.18;;
40591;SDS011;26301;42.832;23.918;2023-03-23T16:23:44;8.35;;;5.72;;
40591;SDS011;26301;42.832;23.918;2023-03-23T16:26:10;9.88;;;5.50;;
40591;SDS011;26301;42.832;23.918;2023-03-23T16:28:36;9.55;;;5.55;;
40591;SDS011;26301;42.832;23.918;2023-03-23T16:31:02;8.10;;;5.47;;
40591;SDS011;26301;42.832;23.918;2023-03-23T16:33:28;7.10;;;5.40;;
40591;SDS011;26301;42.832;23.918;2023-03-23T16:35:54;11.07;;;7.07;;
40591;SDS011;26301;42.832;23.918;2023-03-23T16:38:21;9.25;;;6.80;;
40591;SDS011;26301;42.832;23.918;2023-03-23T16:40:47;16.25;;;11.15;;
40591;SDS011;26301;42.832;23.918;2023-03-23T16:43:12;25.98;;;18.02;;